Skip Navigation LinksHome page > Weather > Current weather Skip Navigation Links

Current Weather

Central Park, New York

For information only: do not use for flight planning or navigation.
Latest weather
Observation time Thursday, April 17, 2014 8:51 AM EDT
Local time Thursday, April 17, 2014 9:00 AM EDT
Flight conditions Visual Meteorological Conditions
Winds
Wind direction East-Northeast (60°)
Wind speed 13 mph
Wind gusting to 22 mph
Visibility 10 mi.
Sky condition
Ceiling unlimited
Sky clear
Temperature 38°F
Dewpoint 20°F
Altimeter 30.74 in.Hg
Derived measurements
Relative humidity 48%
Wind chill 30°F
Density altitude -2293 ft.
Sea-level pressure 30.71 in.Hg
Remarks
Fully automated report.
Automated weather observing station with precipitation discriminator.
METAR KNYC 171251Z AUTO 06011G19KT 10SM CLR 03/M07 A3074 RMK AO2 SLP400 T00331067

Settings

Location code

InnerDrive.Weather 4.0.4869.0 Release CLR 4.0.30319.18449
Copyright ©2013 Inner Drive Technology. All rights reserved. Portions Copyright ©1986-2013 David Braverman.

Find weather

Site navigation


Skip Navigation Links

Place info

Page info

PayPal - The safer, easier way to pay online!

Return home.

Copyright ©2014 Inner Drive Technology. Purveyors of fine, hand-crafted computer software. Page printed 2014-04-17T13:00:13 UTC.